sensor_id;sensor_type;location;lat;lon;timestamp;pressure;altitude;pressure_sealevel;temperature;humidity
67457;BME280;54319;52.038;4.640;2023-02-18T00:01:00;102395.28;;;8.96;94.82
67457;BME280;54319;52.038;4.640;2023-02-18T00:03:29;102378.56;;;8.82;95.23
67457;BME280;54319;52.038;4.640;2023-02-18T00:05:55;102390.19;;;8.93;95.43
67457;BME280;54319;52.038;4.640;2023-02-18T00:08:23;102364.78;;;8.84;95.21
67457;BME280;54319;52.038;4.640;2023-02-18T00:10:49;102363.63;;;8.87;94.88
67457;BME280;54319;52.038;4.640;2023-02-18T00:13:18;102378.97;;;8.96;95.15
67457;BME280;54319;52.038;4.640;2023-02-18T00:15:45;102368.03;;;8.79;95.19
67457;BME280;54319;52.038;4.640;2023-02-18T00:18:13;102371.13;;;8.93;95.16
67457;BME280;54319;52.038;4.640;2023-02-18T00:20:41;102369.41;;;8.83;95.30
67457;BME280;54319;52.038;4.640;2023-02-18T00:23:08;102379.25;;;8.85;95.60
67457;BME280;54319;52.038;4.640;2023-02-18T00:25:34;102376.22;;;8.88;95.56
67457;BME280;54319;52.038;4.640;2023-02-18T00:28:02;102365.66;;;8.85;95.71
67457;BME280;54319;52.038;4.640;2023-02-18T00:30:30;102373.13;;;8.82;95.67
67457;BME280;54319;52.038;4.640;2023-02-18T00:32:57;102368.16;;;8.78;96.11
67457;BME280;54319;52.038;4.640;2023-02-18T00:35:24;102355.25;;;8.80;95.69
67457;BME280;54319;52.038;4.640;2023-02-18T00:37:51;102366.63;;;8.75;95.87
67457;BME280;54319;52.038;4.640;2023-02-18T00:40:18;102360.13;;;8.68;96.11
67457;BME280;54319;52.038;4.640;2023-02-18T00:42:45;102352.97;;;8.67;96.14
67457;BME280;54319;52.038;4.640;2023-02-18T00:45:12;102366.75;;;8.65;96.35
67457;BME280;54319;52.038;4.640;2023-02-18T00:47:40;102356.53;;;8.59;96.64
67457;BME280;54319;52.038;4.640;2023-02-18T00:50:08;102349.38;;;8.58;97.11
67457;BME280;54319;52.038;4.640;2023-02-18T00:52:35;102352.94;;;8.59;96.99
67457;BME280;54319;52.038;4.640;2023-02-18T00:55:02;102351.91;;;8.60;97.04
67457;BME280;54319;52.038;4.640;2023-02-18T00:57:29;102356.66;;;8.58;96.87
67457;BME280;54319;52.038;4.640;2023-02-18T00:59:56;102350.22;;;8.59;96.70
67457;BME280;54319;52.038;4.640;2023-02-18T01:02:23;102344.78;;;8.59;96.92
67457;BME280;54319;52.038;4.640;2023-02-18T01:04:51;102346.66;;;8.58;97.21
67457;BME280;54319;52.038;4.640;2023-02-18T01:07:18;102323.59;;;8.44;97.11
67457;BME280;54319;52.038;4.640;2023-02-18T01:09:47;102352.59;;;8.62;97.34
67457;BME280;54319;52.038;4.640;2023-02-18T01:12:14;102329.66;;;8.56;97.20
67457;BME280;54319;52.038;4.640;2023-02-18T01:14:41;102340.72;;;8.63;97.48
67457;BME280;54319;52.038;4.640;2023-02-18T01:17:09;102328.81;;;8.64;97.52
67457;BME280;54319;52.038;4.640;2023-02-18T01:19:35;102296.91;;;8.48;97.59
67457;BME280;54319;52.038;4.640;2023-02-18T01:22:03;102307.56;;;8.59;97.32
67457;BME280;54319;52.038;4.640;2023-02-18T01:24:31;102320.53;;;8.74;97.50
67457;BME280;54319;52.038;4.640;2023-02-18T01:26:57;102312.16;;;8.67;97.35
67457;BME280;54319;52.038;4.640;2023-02-18T01:29:25;102313.25;;;8.74;97.11
67457;BME280;54319;52.038;4.640;2023-02-18T01:31:52;102321.41;;;8.74;97.52
67457;BME280;54319;52.038;4.640;2023-02-18T01:34:20;102315.97;;;8.74;97.06
67457;BME280;54319;52.038;4.640;2023-02-18T01:36:47;102318.34;;;8.77;97.53
67457;BME280;54319;52.038;4.640;2023-02-18T01:39:15;102320.22;;;8.77;97.80
67457;BME280;54319;52.038;4.640;2023-02-18T01:41:42;102320.75;;;8.80;97.58
67457;BME280;54319;52.038;4.640;2023-02-18T01:44:13;102293.13;;;8.67;97.77
67457;BME280;54319;52.038;4.640;2023-02-18T01:46:40;102303.41;;;8.81;97.58
67457;BME280;54319;52.038;4.640;2023-02-18T01:49:08;102282.78;;;8.71;97.59
67457;BME280;54319;52.038;4.640;2023-02-18T01:51:38;102301.50;;;8.82;97.42
67457;BME280;54319;52.038;4.640;2023-02-18T01:54:10;102286.53;;;8.78;97.59
67457;BME280;54319;52.038;4.640;2023-02-18T01:56:43;102300.13;;;8.78;97.60
67457;BME280;54319;52.038;4.640;2023-02-18T01:59:13;102288.09;;;8.80;97.58
67457;BME280;54319;52.038;4.640;2023-02-18T02:01:42;102285.38;;;8.80;97.82
67457;BME280;54319;52.038;4.640;2023-02-18T02:04:10;102271.75;;;8.72;97.63
67457;BME280;54319;52.038;4.640;2023-02-18T02:06:37;102273.28;;;8.83;97.84
67457;BME280;54319;52.038;4.640;2023-02-18T02:09:06;102264.28;;;8.82;97.72
67457;BME280;54319;52.038;4.640;2023-02-18T02:12:24;102262.41;;;8.83;97.55
67457;BME280;54319;52.038;4.640;2023-02-18T02:15:08;102256.97;;;8.83;97.58
67457;BME280;54319;52.038;4.640;2023-02-18T02:17:47;102245.91;;;8.85;97.83
67457;BME280;54319;52.038;4.640;2023-02-18T02:20:54;102242.19;;;8.86;98.06
67457;BME280;54319;52.038;4.640;2023-02-18T02:23:54;102235.03;;;8.85;97.83
67457;BME280;54319;52.038;4.640;2023-02-18T02:26:54;102239.59;;;8.84;98.09
67457;BME280;54319;52.038;4.640;2023-02-18T02:33:09;102215.13;;;8.84;97.96
67457;BME280;54319;52.038;4.640;2023-02-18T02:35:43;102192.31;;;8.77;98.33
67457;BME280;54319;52.038;4.640;2023-02-18T02:38:17;102085.78;;;8.22;98.11
67457;BME280;54319;52.038;4.640;2023-02-18T02:40:48;102188.44;;;8.88;98.38
67457;BME280;54319;52.038;4.640;2023-02-18T02:43:20;102182.66;;;8.91;98.17
67457;BME280;54319;52.038;4.640;2023-02-18T02:45:55;102162.22;;;8.78;98.47
67457;BME280;54319;52.038;4.640;2023-02-18T02:48:32;102172.44;;;8.93;98.37
67457;BME280;54319;52.038;4.640;2023-02-18T02:51:08;102163.59;;;8.91;98.24
67457;BME280;54319;52.038;4.640;2023-02-18T02:53:39;102164.63;;;8.90;98.19
67457;BME280;54319;52.038;4.640;2023-02-18T02:56:11;102158.16;;;8.91;98.20
67457;BME280;54319;52.038;4.640;2023-02-18T02:58:39;102160.19;;;8.89;98.28
67457;BME280;54319;52.038;4.640;2023-02-18T03:01:19;102164.97;;;8.87;98.50
67457;BME280;54319;52.038;4.640;2023-02-18T03:04:06;102154.75;;;8.89;98.25
67457;BME280;54319;52.038;4.640;2023-02-18T03:09:53;102163.94;;;8.88;98.42
67457;BME280;54319;52.038;4.640;2023-02-18T03:12:29;102154.22;;;8.85;98.56
67457;BME280;54319;52.038;4.640;2023-02-18T03:15:08;102137.75;;;8.78;98.55
67457;BME280;54319;52.038;4.640;2023-02-18T03:17:40;102146.94;;;8.86;98.43
67457;BME280;54319;52.038;4.640;2023-02-18T03:20:15;102144.56;;;8.82;98.75
67457;BME280;54319;52.038;4.640;2023-02-18T03:22:48;102135.72;;;8.89;98.44
67457;BME280;54319;52.038;4.640;2023-02-18T03:25:17;102141.16;;;8.89;98.55
67457;BME280;54319;52.038;4.640;2023-02-18T03:27:48;102131.28;;;8.88;98.47
67457;BME280;54319;52.038;4.640;2023-02-18T03:30:21;102117.00;;;8.86;98.72
67457;BME280;54319;52.038;4.640;2023-02-18T03:32:53;102090.28;;;8.73;98.67
67457;BME280;54319;52.038;4.640;2023-02-18T03:35:21;102113.25;;;8.87;98.95
67457;BME280;54319;52.038;4.640;2023-02-18T03:37:53;102085.88;;;8.72;98.87
67457;BME280;54319;52.038;4.640;2023-02-18T03:40:25;102103.72;;;8.91;99.16
67457;BME280;54319;52.038;4.640;2023-02-18T03:42:56;102085.38;;;8.85;99.01
67457;BME280;54319;52.038;4.640;2023-02-18T03:45:23;102104.59;;;8.91;98.97
67457;BME280;54319;52.038;4.640;2023-02-18T03:47:51;102071.09;;;8.74;98.98
67457;BME280;54319;52.038;4.640;2023-02-18T03:50:18;102081.63;;;8.94;99.03
67457;BME280;54319;52.038;4.640;2023-02-18T03:52:45;102060.88;;;8.76;98.86
67457;BME280;54319;52.038;4.640;2023-02-18T03:55:13;102089.28;;;8.90;98.90
67457;BME280;54319;52.038;4.640;2023-02-18T03:57:42;102097.44;;;8.90;98.98
67457;BME280;54319;52.038;4.640;2023-02-18T04:00:09;102096.59;;;8.90;98.72
67457;BME280;54319;52.038;4.640;2023-02-18T04:02:37;102066.31;;;8.76;98.63
67457;BME280;54319;52.038;4.640;2023-02-18T04:05:04;102070.22;;;8.82;98.82
67457;BME280;54319;52.038;4.640;2023-02-18T04:07:31;102087.41;;;8.91;98.74
67457;BME280;54319;52.038;4.640;2023-02-18T04:09:57;102077.53;;;8.90;98.69
67457;BME280;54319;52.038;4.640;2023-02-18T04:12:26;102071.75;;;8.85;98.73
67457;BME280;54319;52.038;4.640;2023-02-18T04:14:52;102074.81;;;8.90;98.69
67457;BME280;54319;52.038;4.640;2023-02-18T04:17:20;102077.38;;;8.91;98.50
67457;BME280;54319;52.038;4.640;2023-02-18T04:19:46;102071.06;;;8.91;98.58
67457;BME280;54319;52.038;4.640;2023-02-18T04:22:13;102017.19;;;8.61;98.85
67457;BME280;54319;52.038;4.640;2023-02-18T04:24:40;102019.38;;;8.66;98.73
67457;BME280;54319;52.038;4.640;2023-02-18T04:27:07;102018.88;;;8.71;98.64
67457;BME280;54319;52.038;4.640;2023-02-18T04:29:35;102044.56;;;8.76;98.87
67457;BME280;54319;52.038;4.640;2023-02-18T04:32:03;102049.81;;;8.86;98.70
67457;BME280;54319;52.038;4.640;2023-02-18T04:34:29;102045.41;;;8.93;99.00
67457;BME280;54319;52.038;4.640;2023-02-18T04:36:56;102057.78;;;9.04;98.84
67457;BME280;54319;52.038;4.640;2023-02-18T04:39:24;102046.88;;;9.04;98.83
67457;BME280;54319;52.038;4.640;2023-02-18T04:41:50;102055.06;;;9.04;98.95
67457;BME280;54319;52.038;4.640;2023-02-18T04:44:18;102021.75;;;8.94;98.84
67457;BME280;54319;52.038;4.640;2023-02-18T04:46:46;102012.06;;;8.91;98.49
67457;BME280;54319;52.038;4.640;2023-02-18T04:49:13;102038.38;;;9.16;98.84
67457;BME280;54319;52.038;4.640;2023-02-18T04:51:39;102026.81;;;9.14;98.68
67457;BME280;54319;52.038;4.640;2023-02-18T04:54:07;102002.50;;;9.04;98.60
67457;BME280;54319;52.038;4.640;2023-02-18T04:56:34;102020.03;;;9.09;98.61
67457;BME280;54319;52.038;4.640;2023-02-18T04:59:02;102021.53;;;9.12;98.61
67457;BME280;54319;52.038;4.640;2023-02-18T05:01:28;102029.34;;;9.15;98.47
67457;BME280;54319;52.038;4.640;2023-02-18T05:03:57;102019.34;;;9.16;98.55
67457;BME280;54319;52.038;4.640;2023-02-18T05:06:23;102024.91;;;9.22;98.40
67457;BME280;54319;52.038;4.640;2023-02-18T05:08:50;102019.81;;;9.19;98.46
67457;BME280;54319;52.038;4.640;2023-02-18T05:11:17;102024.06;;;9.22;98.12
67457;BME280;54319;52.038;4.640;2023-02-18T05:13:44;102019.66;;;9.21;98.28
67457;BME280;54319;52.038;4.640;2023-02-18T05:16:11;101996.53;;;9.08;98.18
67457;BME280;54319;52.038;4.640;2023-02-18T05:18:38;102008.78;;;9.12;98.12
67457;BME280;54319;52.038;4.640;2023-02-18T05:21:07;102018.97;;;9.19;98.02
67457;BME280;54319;52.038;4.640;2023-02-18T05:23:36;102017.41;;;9.24;97.82
67457;BME280;54319;52.038;4.640;2023-02-18T05:26:03;102002.28;;;9.22;97.80
67457;BME280;54319;52.038;4.640;2023-02-18T05:28:31;102011.97;;;9.24;97.82
67457;BME280;54319;52.038;4.640;2023-02-18T05:30:58;101939.41;;;8.92;97.56
67457;BME280;54319;52.038;4.640;2023-02-18T05:33:25;102007.69;;;9.30;97.36
67457;BME280;54319;52.038;4.640;2023-02-18T05:35:52;102002.09;;;9.32;97.52
67457;BME280;54319;52.038;4.640;2023-02-18T05:38:21;101996.81;;;9.30;97.28
67457;BME280;54319;52.038;4.640;2023-02-18T05:40:48;101998.50;;;9.31;97.36
67457;BME280;54319;52.038;4.640;2023-02-18T05:43:15;101982.16;;;9.31;96.98
67457;BME280;54319;52.038;4.640;2023-02-18T05:45:41;101986.13;;;9.29;97.08
67457;BME280;54319;52.038;4.640;2023-02-18T05:48:09;101996.81;;;9.30;96.99
67457;BME280;54319;52.038;4.640;2023-02-18T05:50:35;101987.81;;;9.30;96.74
67457;BME280;54319;52.038;4.640;2023-02-18T05:53:02;101984.91;;;9.31;96.71
67457;BME280;54319;52.038;4.640;2023-02-18T05:55:31;101976.41;;;9.26;96.89
67457;BME280;54319;52.038;4.640;2023-02-18T05:58:02;101969.63;;;9.22;96.62
67457;BME280;54319;52.038;4.640;2023-02-18T06:00:28;101985.75;;;9.23;96.72
67457;BME280;54319;52.038;4.640;2023-02-18T06:02:56;101994.13;;;9.22;96.64
67457;BME280;54319;52.038;4.640;2023-02-18T06:05:23;101966.25;;;9.03;96.72
67457;BME280;54319;52.038;4.640;2023-02-18T06:07:50;101992.94;;;9.16;96.84
67457;BME280;54319;52.038;4.640;2023-02-18T06:10:17;101991.06;;;9.17;96.58
67457;BME280;54319;52.038;4.640;2023-02-18T06:12:45;101982.41;;;9.13;96.86
67457;BME280;54319;52.038;4.640;2023-02-18T06:15:12;101980.53;;;9.14;96.87
67457;BME280;54319;52.038;4.640;2023-02-18T06:17:39;101988.03;;;9.11;97.05
67457;BME280;54319;52.038;4.640;2023-02-18T06:20:06;101969.66;;;9.05;96.58
67457;BME280;54319;52.038;4.640;2023-02-18T06:22:34;101988.72;;;9.14;96.85
67457;BME280;54319;52.038;4.640;2023-02-18T06:25:00;101968.31;;;9.09;96.62
67457;BME280;54319;52.038;4.640;2023-02-18T06:27:29;101962.03;;;9.01;96.54
67457;BME280;54319;52.038;4.640;2023-02-18T06:29:57;101977.31;;;9.10;96.66
67457;BME280;54319;52.038;4.640;2023-02-18T06:32:24;101976.78;;;9.15;96.62
67457;BME280;54319;52.038;4.640;2023-02-18T06:34:50;101971.50;;;9.13;96.24
67457;BME280;54319;52.038;4.640;2023-02-18T06:37:18;101967.59;;;9.16;96.12
67457;BME280;54319;52.038;4.640;2023-02-18T06:39:44;101967.94;;;9.12;96.28
67457;BME280;54319;52.038;4.640;2023-02-18T06:42:11;101970.69;;;9.12;96.32
67457;BME280;54319;52.038;4.640;2023-02-18T06:44:38;101971.00;;;9.18;96.25
67457;BME280;54319;52.038;4.640;2023-02-18T06:47:07;101978.81;;;9.21;96.39
67457;BME280;54319;52.038;4.640;2023-02-18T06:49:33;101968.94;;;9.20;96.11
67457;BME280;54319;52.038;4.640;2023-02-18T06:52:04;101961.28;;;9.15;95.94
67457;BME280;54319;52.038;4.640;2023-02-18T06:54:33;101965.91;;;9.15;95.50
67457;BME280;54319;52.038;4.640;2023-02-18T06:57:01;101971.47;;;9.21;94.94
67457;BME280;54319;52.038;4.640;2023-02-18T06:59:27;101977.25;;;9.26;94.45
67457;BME280;54319;52.038;4.640;2023-02-18T07:01:54;101971.31;;;9.23;93.75
67457;BME280;54319;52.038;4.640;2023-02-18T07:04:22;101960.09;;;9.18;93.77
67457;BME280;54319;52.038;4.640;2023-02-18T07:06:49;101972.69;;;9.19;93.47
67457;BME280;54319;52.038;4.640;2023-02-18T07:09:16;101961.50;;;9.14;93.17
67457;BME280;54319;52.038;4.640;2023-02-18T07:11:42;101971.00;;;9.18;93.11
67457;BME280;54319;52.038;4.640;2023-02-18T07:14:10;101975.56;;;9.17;92.66
67457;BME280;54319;52.038;4.640;2023-02-18T07:16:37;101961.50;;;9.14;92.29
67457;BME280;54319;52.038;4.640;2023-02-18T07:19:04;101949.72;;;9.13;91.86
67457;BME280;54319;52.038;4.640;2023-02-18T07:21:32;101956.41;;;9.02;91.39
67457;BME280;54319;52.038;4.640;2023-02-18T07:24:00;101952.16;;;9.00;91.67
67457;BME280;54319;52.038;4.640;2023-02-18T07:26:27;101973.03;;;9.07;91.12
67457;BME280;54319;52.038;4.640;2023-02-18T07:28:54;101949.56;;;9.06;90.73
67457;BME280;54319;52.038;4.640;2023-02-18T07:31:21;101958.75;;;9.14;90.01
67457;BME280;54319;52.038;4.640;2023-02-18T07:33:49;101967.75;;;9.14;89.81
67457;BME280;54319;52.038;4.640;2023-02-18T07:36:15;101951.97;;;9.09;89.48
67457;BME280;54319;52.038;4.640;2023-02-18T07:38:44;101951.06;;;9.17;89.70
67457;BME280;54319;52.038;4.640;2023-02-18T07:41:16;101960.28;;;9.16;89.17
67457;BME280;54319;52.038;4.640;2023-02-18T07:43:44;101958.56;;;9.15;88.82
67457;BME280;54319;52.038;4.640;2023-02-18T07:46:11;101954.66;;;9.18;88.06
67457;BME280;54319;52.038;4.640;2023-02-18T07:48:38;101955.34;;;9.20;87.92
67457;BME280;54319;52.038;4.640;2023-02-18T07:51:05;101960.09;;;9.18;88.30
67457;BME280;54319;52.038;4.640;2023-02-18T07:53:34;101963.84;;;9.17;88.36
67457;BME280;54319;52.038;4.640;2023-02-18T07:56:02;101959.25;;;9.17;88.18
67457;BME280;54319;52.038;4.640;2023-02-18T07:58:31;101961.50;;;9.14;88.36
67457;BME280;54319;52.038;4.640;2023-02-18T08:00:58;101966.75;;;9.15;87.96
67457;BME280;54319;52.038;4.640;2023-02-18T08:03:26;101976.59;;;9.16;87.80
67457;BME280;54319;52.038;4.640;2023-02-18T08:05:53;101972.38;;;9.14;88.10
67457;BME280;54319;52.038;4.640;2023-02-18T08:08:23;101966.25;;;9.03;87.71
67457;BME280;54319;52.038;4.640;2023-02-18T08:10:51;101971.50;;;9.13;87.71
67457;BME280;54319;52.038;4.640;2023-02-18T08:13:20;101945.34;;;9.04;87.52
67457;BME280;54319;52.038;4.640;2023-02-18T08:15:48;101961.50;;;9.14;87.36
67457;BME280;54319;52.038;4.640;2023-02-18T08:18:17;101977.28;;;9.18;87.69
67457;BME280;54319;52.038;4.640;2023-02-18T08:20:44;101961.50;;;9.14;87.77
67457;BME280;54319;52.038;4.640;2023-02-18T08:23:13;101968.09;;;9.19;87.85
67457;BME280;54319;52.038;4.640;2023-02-18T08:25:44;101955.00;;;9.06;88.24
67457;BME280;54319;52.038;4.640;2023-02-18T08:28:12;101975.78;;;9.16;88.98
67457;BME280;54319;52.038;4.640;2023-02-18T08:30:43;101984.63;;;9.09;89.49
67457;BME280;54319;52.038;4.640;2023-02-18T08:33:10;101980.53;;;9.05;89.99
67457;BME280;54319;52.038;4.640;2023-02-18T08:35:37;101978.34;;;9.01;90.05
67457;BME280;54319;52.038;4.640;2023-02-18T08:38:05;101971.34;;;9.06;89.24
67457;BME280;54319;52.038;4.640;2023-02-18T08:40:31;101961.31;;;9.07;89.08
67457;BME280;54319;52.038;4.640;2023-02-18T08:42:58;101959.59;;;9.14;89.34
67457;BME280;54319;52.038;4.640;2023-02-18T08:45:25;101966.22;;;9.20;88.76
67457;BME280;54319;52.038;4.640;2023-02-18T08:47:54;101979.28;;;9.24;88.06
67457;BME280;54319;52.038;4.640;2023-02-18T08:50:21;101968.91;;;9.28;87.70
67457;BME280;54319;52.038;4.640;2023-02-18T08:52:50;101977.75;;;9.30;87.16
67457;BME280;54319;52.038;4.640;2023-02-18T08:55:17;101987.63;;;9.31;86.47
67457;BME280;54319;52.038;4.640;2023-02-18T08:57:45;101995.06;;;9.37;86.59
67457;BME280;54319;52.038;4.640;2023-02-18T09:00:13;101993.38;;;9.36;86.83
67457;BME280;54319;52.038;4.640;2023-02-18T09:02:41;101994.72;;;9.49;85.69
67457;BME280;54319;52.038;4.640;2023-02-18T09:05:10;102010.69;;;9.52;85.61
67457;BME280;54319;52.038;4.640;2023-02-18T09:07:38;102009.16;;;9.49;85.51
67457;BME280;54319;52.038;4.640;2023-02-18T09:10:06;101985.72;;;9.40;85.64
67457;BME280;54319;52.038;4.640;2023-02-18T09:12:34;101997.75;;;9.54;85.18
67457;BME280;54319;52.038;4.640;2023-02-18T09:15:02;102009.69;;;9.53;85.00
67457;BME280;54319;52.038;4.640;2023-02-18T09:17:30;101999.81;;;9.52;84.84
67457;BME280;54319;52.038;4.640;2023-02-18T09:20:04;101999.84;;;9.35;84.90
67457;BME280;54319;52.038;4.640;2023-02-18T09:22:34;102010.47;;;9.62;85.05
67457;BME280;54319;52.038;4.640;2023-02-18T09:25:01;102003.31;;;9.61;85.32
67457;BME280;54319;52.038;4.640;2023-02-18T09:27:28;102010.16;;;9.56;84.79
67457;BME280;54319;52.038;4.640;2023-02-18T09:29:55;102024.97;;;9.62;85.30
67457;BME280;54319;52.038;4.640;2023-02-18T09:32:22;102028.34;;;9.64;84.87
67457;BME280;54319;52.038;4.640;2023-02-18T09:34:49;102030.75;;;9.59;84.93
67457;BME280;54319;52.038;4.640;2023-02-18T09:37:16;102020.41;;;9.46;85.01
67457;BME280;54319;52.038;4.640;2023-02-18T09:39:44;102008.34;;;9.49;85.60
67457;BME280;54319;52.038;4.640;2023-02-18T09:42:15;102019.91;;;9.51;85.46
67457;BME280;54319;52.038;4.640;2023-02-18T09:44:47;102031.28;;;9.54;85.73
67457;BME280;54319;52.038;4.640;2023-02-18T09:47:17;102032.81;;;9.57;85.79
67457;BME280;54319;52.038;4.640;2023-02-18T09:49:47;102041.66;;;9.59;85.87
67457;BME280;54319;52.038;4.640;2023-02-18T09:52:19;102025.00;;;9.46;86.17
67457;BME280;54319;52.038;4.640;2023-02-18T09:54:49;102062.44;;;9.60;86.31
67457;BME280;54319;52.038;4.640;2023-02-18T09:57:22;102042.84;;;9.56;85.65
67457;BME280;54319;52.038;4.640;2023-02-18T09:59:55;102055.41;;;9.66;85.75
67457;BME280;54319;52.038;4.640;2023-02-18T10:02:23;102046.91;;;9.69;85.74
67457;BME280;54319;52.038;4.640;2023-02-18T10:04:51;102046.22;;;9.67;85.83
67457;BME280;54319;52.038;4.640;2023-02-18T10:07:22;102039.56;;;9.69;85.80
67457;BME280;54319;52.038;4.640;2023-02-18T10:09:53;102052.00;;;9.72;85.39
67457;BME280;54319;52.038;4.640;2023-02-18T10:12:23;102026.38;;;9.50;85.61
67457;BME280;54319;52.038;4.640;2023-02-18T10:14:52;102035.22;;;9.44;85.59
67457;BME280;54319;52.038;4.640;2023-02-18T10:17:24;102056.44;;;9.65;85.79
67457;BME280;54319;52.038;4.640;2023-02-18T10:19:53;102060.34;;;9.70;85.63
67457;BME280;54319;52.038;4.640;2023-02-18T10:22:26;102065.44;;;9.74;85.91
67457;BME280;54319;52.038;4.640;2023-02-18T10:24:56;102074.78;;;9.79;86.27
67457;BME280;54319;52.038;4.640;2023-02-18T10:27:27;102045.69;;;9.72;85.62
67457;BME280;54319;52.038;4.640;2023-02-18T10:29:57;102056.69;;;9.87;86.03
67457;BME280;54319;52.038;4.640;2023-02-18T10:32:32;102059.00;;;9.98;85.46
67457;BME280;54319;52.038;4.640;2023-02-18T10:35:05;102072.44;;;10.08;85.15
67457;BME280;54319;52.038;4.640;2023-02-18T10:37:54;102065.72;;;10.19;85.10
67457;BME280;54319;52.038;4.640;2023-02-18T10:40:29;102089.59;;;10.17;84.96
67457;BME280;54319;52.038;4.640;2023-02-18T10:43:06;102095.88;;;10.25;84.78
67457;BME280;54319;52.038;4.640;2023-02-18T10:45:41;102099.94;;;10.21;84.55
67457;BME280;54319;52.038;4.640;2023-02-18T10:48:22;102083.94;;;10.18;85.20
67457;BME280;54319;52.038;4.640;2023-02-18T10:50:52;102095.88;;;10.25;84.82
67457;BME280;54319;52.038;4.640;2023-02-18T10:53:21;102082.41;;;10.24;85.03
67457;BME280;54319;52.038;4.640;2023-02-18T10:55:52;102071.34;;;10.17;84.43
67457;BME280;54319;52.038;4.640;2023-02-18T10:58:27;102071.03;;;10.12;84.80
67457;BME280;54319;52.038;4.640;2023-02-18T11:00:55;102091.09;;;10.19;84.79
67457;BME280;54319;52.038;4.640;2023-02-18T11:03:24;102085.66;;;10.19;84.93
67457;BME280;54319;52.038;4.640;2023-02-18T11:05:54;102077.81;;;10.24;85.44
67457;BME280;54319;52.038;4.640;2023-02-18T11:08:23;102077.59;;;10.26;85.04
67457;BME280;54319;52.038;4.640;2023-02-18T11:10:53;102066.75;;;10.18;84.94
67457;BME280;54319;52.038;4.640;2023-02-18T11:13:26;102058.50;;;10.03;85.00
67457;BME280;54319;52.038;4.640;2023-02-18T11:15:56;102095.00;;;10.25;84.91
67457;BME280;54319;52.038;4.640;2023-02-18T11:18:31;102087.13;;;10.30;85.32
67457;BME280;54319;52.038;4.640;2023-02-18T11:21:00;102087.69;;;10.25;85.00
67457;BME280;54319;52.038;4.640;2023-02-18T11:23:28;102083.72;;;10.28;84.87
67457;BME280;54319;52.038;4.640;2023-02-18T11:25:59;102104.16;;;10.32;85.30
67457;BME280;54319;52.038;4.640;2023-02-18T11:28:38;102041.59;;;10.07;84.66
67457;BME280;54319;52.038;4.640;2023-02-18T11:31:07;102081.06;;;10.20;84.64
67457;BME280;54319;52.038;4.640;2023-02-18T11:33:47;102079.84;;;10.22;85.10
67457;BME280;54319;52.038;4.640;2023-02-18T11:36:45;102090.06;;;10.28;84.48
67457;BME280;54319;52.038;4.640;2023-02-18T11:39:18;102090.41;;;10.25;84.91
67457;BME280;54319;52.038;4.640;2023-02-18T11:44:59;102085.94;;;10.33;85.16
67457;BME280;54319;52.038;4.640;2023-02-18T11:47:58;102032.78;;;9.97;84.69
67457;BME280;54319;52.038;4.640;2023-02-18T11:50:30;102080.94;;;10.36;85.19
67457;BME280;54319;52.038;4.640;2023-02-18T11:52:58;102084.72;;;10.35;84.74
67457;BME280;54319;52.038;4.640;2023-02-18T11:55:29;102007.41;;;9.96;84.33
67457;BME280;54319;52.038;4.640;2023-02-18T11:58:01;102068.53;;;10.34;84.74
67457;BME280;54319;52.038;4.640;2023-02-18T12:00:38;102082.16;;;10.42;84.12
67457;BME280;54319;52.038;4.640;2023-02-18T12:03:14;102049.97;;;10.29;84.31
67457;BME280;54319;52.038;4.640;2023-02-18T12:05:44;102083.41;;;10.54;84.13
67457;BME280;54319;52.038;4.640;2023-02-18T12:08:14;102079.25;;;10.67;83.64
67457;BME280;54319;52.038;4.640;2023-02-18T12:10:46;102019.53;;;10.49;83.30
67457;BME280;54319;52.038;4.640;2023-02-18T12:13:22;102075.50;;;11.06;82.82
67457;BME280;54319;52.038;4.640;2023-02-18T12:15:59;102065.31;;;11.15;82.04
67457;BME280;54319;52.038;4.640;2023-02-18T12:18:50;102078.75;;;11.40;81.74
67457;BME280;54319;52.038;4.640;2023-02-18T12:21:33;102070.53;;;11.55;80.96
67457;BME280;54319;52.038;4.640;2023-02-18T12:24:17;102074.88;;;11.49;80.28
67457;BME280;54319;52.038;4.640;2023-02-18T12:26:51;102072.63;;;11.53;80.27
67457;BME280;54319;52.038;4.640;2023-02-18T12:29:33;102077.81;;;11.48;81.06
67457;BME280;54319;52.038;4.640;2023-02-18T12:32:25;102073.81;;;11.35;81.26
67457;BME280;54319;52.038;4.640;2023-02-18T12:35:10;102071.09;;;11.20;81.64
67457;BME280;54319;52.038;4.640;2023-02-18T12:38:00;102065.34;;;11.30;81.89
67457;BME280;54319;52.038;4.640;2023-02-18T12:40:50;102073.47;;;11.38;81.56
67457;BME280;54319;52.038;4.640;2023-02-18T12:43:31;102061.88;;;11.51;81.50
67457;BME280;54319;52.038;4.640;2023-02-18T12:46:17;102065.75;;;11.57;81.41
67457;BME280;54319;52.038;4.640;2023-02-18T12:49:25;102077.72;;;11.71;80.54
67457;BME280;54319;52.038;4.640;2023-02-18T12:52:04;102066.56;;;11.87;79.61
67457;BME280;54319;52.038;4.640;2023-02-18T12:54:43;102102.03;;;11.81;79.21
67457;BME280;54319;52.038;4.640;2023-02-18T12:57:33;102065.53;;;11.73;79.94
67457;BME280;54319;52.038;4.640;2023-02-18T13:00:38;102066.22;;;11.76;79.90
67457;BME280;54319;52.038;4.640;2023-02-18T13:03:35;102076.66;;;11.72;79.81
67457;BME280;54319;52.038;4.640;2023-02-18T13:06:18;102071.09;;;11.65;80.34
67457;BME280;54319;52.038;4.640;2023-02-18T13:08:56;102072.53;;;11.61;80.12
67457;BME280;54319;52.038;4.640;2023-02-18T13:11:35;102055.47;;;11.59;80.55
67457;BME280;54319;52.038;4.640;2023-02-18T13:14:10;102070.72;;;11.53;80.29
67457;BME280;54319;52.038;4.640;2023-02-18T13:16:40;102064.31;;;11.76;79.50
67457;BME280;54319;52.038;4.640;2023-02-18T13:19:16;102060.81;;;11.67;80.03
67457;BME280;54319;52.038;4.640;2023-02-18T13:21:48;102055.34;;;11.67;79.91
67457;BME280;54319;52.038;4.640;2023-02-18T13:24:26;102046.50;;;11.65;79.71
67457;BME280;54319;52.038;4.640;2023-02-18T13:27:02;102067.25;;;11.75;80.72